createdAt,value
2023-04-06T00:01:55.151Z,12.30
2023-04-06T00:04:44.127Z,11.77
2023-04-06T00:07:34.432Z,12.87
2023-04-06T00:10:24.627Z,15.57
2023-04-06T00:13:13.530Z,13.57
2023-04-06T00:16:02.399Z,10.60
2023-04-06T00:18:51.539Z,11.20
2023-04-06T00:21:40.429Z,10.20
2023-04-06T00:24:29.274Z,15.07
2023-04-06T00:27:19.596Z,10.37
2023-04-06T00:30:09.749Z,13.07
2023-04-06T00:32:58.798Z,10.73
2023-04-06T00:35:47.820Z,10.70
2023-04-06T00:38:36.596Z,14.30
2023-04-06T00:41:25.889Z,12.40
2023-04-06T00:44:16.323Z,13.40
2023-04-06T00:47:05.269Z,13.73
2023-04-06T00:49:54.326Z,13.80
2023-04-06T00:52:42.944Z,16.70
2023-04-06T00:55:32.380Z,13.70
2023-04-06T00:58:21.815Z,10.13
2023-04-06T01:01:17.642Z,12.97
2023-04-06T01:04:07.294Z,12.23
2023-04-06T01:07:02.556Z,13.40
2023-04-06T01:10:00.390Z,11.27
2023-04-06T01:12:51.887Z,7.80
2023-04-06T01:15:51.467Z,10.80
2023-04-06T01:18:48.599Z,10.43
2023-04-06T01:21:45.086Z,11.63
2023-04-06T01:25:04.768Z,8.30
2023-04-06T01:28:00.046Z,9.03
2023-04-06T01:31:14.883Z,9.57
2023-04-06T01:34:10.453Z,8.27
2023-04-06T01:36:59.602Z,8.07
2023-04-06T01:39:53.866Z,9.77
2023-04-06T01:42:57.137Z,10.20
2023-04-06T01:46:02.045Z,7.87
2023-04-06T01:48:56.177Z,9.20
2023-04-06T01:52:05.294Z,9.83
2023-04-06T01:54:54.220Z,7.17
2023-04-06T01:57:57.030Z,8.83
2023-04-06T02:00:55.454Z,8.53
2023-04-06T02:03:44.264Z,7.73
2023-04-06T02:06:34.226Z,8.97
2023-04-06T02:09:25.254Z,8.10
2023-04-06T02:12:16.675Z,8.47
2023-04-06T02:15:07.749Z,11.43
2023-04-06T02:17:56.569Z,7.13
2023-04-06T02:20:47.449Z,9.63
2023-04-06T02:23:36.132Z,7.70
2023-04-06T02:26:24.735Z,8.90
2023-04-06T02:29:17.027Z,10.17
2023-04-06T02:32:07.457Z,10.13
2023-04-06T02:34:56.391Z,8.90
2023-04-06T02:37:46.092Z,8.90
2023-04-06T02:40:34.950Z,11.20
2023-04-06T02:43:32.251Z,8.83
2023-04-06T02:46:27.624Z,7.00
2023-04-06T02:49:18.023Z,9.97
2023-04-06T02:52:07.624Z,8.27
2023-04-06T02:54:58.298Z,9.63
2023-04-06T02:57:50.426Z,10.53
2023-04-06T03:00:41.991Z,11.20
2023-04-06T03:03:31.373Z,11.53
2023-04-06T03:06:22.287Z,11.87
2023-04-06T03:09:15.903Z,14.10
2023-04-06T03:12:08.461Z,14.67
2023-04-06T03:15:15.138Z,14.97
2023-04-06T03:18:08.687Z,13.03
2023-04-06T03:21:02.991Z,12.70
2023-04-06T03:24:04.006Z,9.90
2023-04-06T03:26:52.718Z,12.47
2023-04-06T03:29:43.083Z,12.47
2023-04-06T03:32:35.554Z,15.07
2023-04-06T03:35:24.785Z,11.23
2023-04-06T03:38:16.188Z,14.20
2023-04-06T03:41:06.581Z,13.40
2023-04-06T03:43:55.469Z,13.93
2023-04-06T03:46:44.351Z,13.53
2023-04-06T03:49:51.998Z,12.80
2023-04-06T03:52:40.727Z,11.03
2023-04-06T03:55:29.520Z,14.50
2023-04-06T03:58:20.716Z,15.00
2023-04-06T04:01:34.467Z,15.33
2023-04-06T04:04:25.017Z,16.20
2023-04-06T04:07:14.383Z,18.93
2023-04-06T04:10:05.998Z,13.77
2023-04-06T04:12:54.882Z,15.53
2023-04-06T04:15:45.519Z,12.67
2023-04-06T04:18:34.619Z,13.10
2023-04-06T04:21:23.388Z,11.30
2023-04-06T04:24:13.028Z,15.27
2023-04-06T04:27:03.287Z,14.40
2023-04-06T04:29:54.092Z,12.00
2023-04-06T04:32:44.751Z,16.00
2023-04-06T04:35:34.547Z,14.40
2023-04-06T04:38:23.510Z,15.73
2023-04-06T04:41:15.586Z,13.10
2023-04-06T04:44:06.670Z,15.37
2023-04-06T04:46:55.660Z,13.67
2023-04-06T04:49:52.387Z,16.10
2023-04-06T04:52:45.189Z,13.23
2023-04-06T04:55:38.323Z,14.37
2023-04-06T04:58:27.704Z,13.97
2023-04-06T05:01:19.397Z,16.27
2023-04-06T05:04:09.213Z,13.93
2023-04-06T05:07:06.906Z,10.97
2023-04-06T05:09:56.798Z,13.10
2023-04-06T05:12:49.272Z,11.60
2023-04-06T05:15:39.334Z,13.37
2023-04-06T05:18:36.262Z,13.20
2023-04-06T05:21:27.253Z,12.60
2023-04-06T05:24:25.274Z,11.60
2023-04-06T05:27:14.900Z,11.60
2023-04-06T05:30:04.662Z,12.70
2023-04-06T05:32:58.708Z,13.13
2023-04-06T05:35:51.989Z,14.37
2023-04-06T05:38:40.850Z,13.93
2023-04-06T05:41:43.911Z,15.50
2023-04-06T05:44:34.572Z,13.80
2023-04-06T05:47:34.309Z,12.50
2023-04-06T05:50:36.032Z,11.10
2023-04-06T05:53:27.535Z,11.03
2023-04-06T05:56:19.754Z,11.87
2023-04-06T05:59:10.188Z,12.17
2023-04-06T06:01:59.236Z,12.40
2023-04-06T06:04:48.517Z,13.73
2023-04-06T06:07:38.674Z,11.33
2023-04-06T06:10:27.420Z,12.00
2023-04-06T06:13:16.267Z,12.63
2023-04-06T06:16:07.531Z,13.53
2023-04-06T06:19:00.943Z,12.53
2023-04-06T06:21:49.851Z,9.20
2023-04-06T06:24:38.708Z,10.93
2023-04-06T06:27:27.712Z,11.50
2023-04-06T06:30:17.151Z,14.37
2023-04-06T06:33:08.696Z,9.03
2023-04-06T06:35:57.603Z,10.57
2023-04-06T06:38:47.157Z,8.27
2023-04-06T06:41:38.711Z,7.33
2023-04-06T06:44:28.488Z,9.30
2023-04-06T06:47:17.472Z,12.67
2023-04-06T06:50:09.652Z,9.43
2023-04-06T06:52:58.393Z,7.10
2023-04-06T06:55:47.175Z,8.23
2023-04-06T06:58:36.460Z,9.53
2023-04-06T07:01:25.616Z,8.40
2023-04-06T07:04:16.254Z,6.60
2023-04-06T07:07:06.421Z,5.97
2023-04-06T07:09:55.079Z,8.37
2023-04-06T07:12:43.847Z,8.10
2023-04-06T07:15:32.657Z,7.67
2023-04-06T07:18:22.032Z,5.40
2023-04-06T07:21:11.000Z,8.83
2023-04-06T07:24:02.894Z,6.00
2023-04-06T07:26:52.006Z,8.63
2023-04-06T07:29:41.667Z,7.50
2023-04-06T07:32:32.603Z,4.87
2023-04-06T07:35:21.619Z,6.37
2023-04-06T07:38:10.504Z,4.10
2023-04-06T07:41:01.081Z,6.93
2023-04-06T07:43:50.851Z,13.57
2023-04-06T07:46:40.159Z,6.37
2023-04-06T07:49:29.217Z,5.83
2023-04-06T07:52:18.332Z,5.47
2023-04-06T07:55:08.017Z,6.47
2023-04-06T07:57:58.432Z,4.93
2023-04-06T08:00:47.180Z,6.23
2023-04-06T08:03:36.555Z,8.17
2023-04-06T08:06:25.639Z,5.53
2023-04-06T08:09:17.386Z,5.97
2023-04-06T08:12:06.441Z,8.30
2023-04-06T08:14:57.956Z,9.47
2023-04-06T08:17:46.857Z,9.70
2023-04-06T08:20:35.618Z,8.30
2023-04-06T08:23:24.508Z,6.90
2023-04-06T08:26:14.345Z,6.93
2023-04-06T08:29:05.101Z,7.17
2023-04-06T08:31:55.194Z,7.83
2023-04-06T08:34:43.835Z,8.70
2023-04-06T08:37:33.530Z,7.37
2023-04-06T08:40:22.514Z,7.17
2023-04-06T08:43:14.950Z,9.23
2023-04-06T08:46:04.334Z,6.70
2023-04-06T08:48:54.826Z,6.13
2023-04-06T08:51:45.125Z,5.80
2023-04-06T08:54:34.074Z,7.27
2023-04-06T08:57:24.319Z,6.50
2023-04-06T09:00:15.131Z,11.63
2023-04-06T09:03:06.018Z,6.93
2023-04-06T09:05:56.776Z,6.93
2023-04-06T09:08:45.665Z,7.60
2023-04-06T09:11:45.105Z,7.63
2023-04-06T09:14:38.763Z,8.00
2023-04-06T09:17:29.225Z,6.30
2023-04-06T09:20:26.936Z,7.50
2023-04-06T09:23:21.865Z,8.43
2023-04-06T09:26:12.897Z,9.77
2023-04-06T09:29:02.708Z,9.53
2023-04-06T09:31:51.782Z,6.93
2023-04-06T09:34:41.298Z,10.17
2023-04-06T09:37:30.887Z,10.10
2023-04-06T09:40:23.308Z,8.60
2023-04-06T09:43:13.031Z,9.47
2023-04-06T09:46:05.082Z,12.47
2023-04-06T09:48:55.098Z,9.53
2023-04-06T09:51:48.445Z,6.67
2023-04-06T09:54:38.572Z,10.67
2023-04-06T09:57:34.795Z,13.07
2023-04-06T10:00:25.036Z,12.90
2023-04-06T10:03:23.143Z,12.23
2023-04-06T10:06:14.236Z,10.30
2023-04-06T10:09:06.297Z,9.50
2023-04-06T10:11:55.138Z,10.30
2023-04-06T10:14:46.261Z,7.17
2023-04-06T10:17:34.956Z,7.97
2023-04-06T10:20:26.951Z,7.93
2023-04-06T10:23:22.033Z,8.57
2023-04-06T10:26:17.553Z,9.47
2023-04-06T10:29:07.326Z,6.83
2023-04-06T10:31:57.552Z,7.70
2023-04-06T10:34:46.411Z,6.93
2023-04-06T10:37:49.562Z,9.53
2023-04-06T10:40:39.857Z,7.33
2023-04-06T10:43:28.648Z,8.90
2023-04-06T10:46:27.930Z,8.67
2023-04-06T10:49:18.132Z,7.30
2023-04-06T10:52:08.933Z,9.13
2023-04-06T10:54:58.111Z,6.17
2023-04-06T10:57:50.194Z,6.17
2023-04-06T11:00:50.753Z,7.47
2023-04-06T11:03:46.227Z,8.53
2023-04-06T11:06:36.590Z,9.27
2023-04-06T11:09:29.532Z,8.60
2023-04-06T11:12:24.104Z,11.30
2023-04-06T11:15:13.975Z,8.33
2023-04-06T11:18:06.532Z,8.33
2023-04-06T11:20:55.299Z,7.90
2023-04-06T11:23:45.571Z,8.93
2023-04-06T11:26:38.700Z,10.27
2023-04-06T11:29:29.732Z,9.13
2023-04-06T11:32:25.588Z,8.67
2023-04-06T11:35:22.528Z,12.33
2023-04-06T11:38:14.167Z,8.00
2023-04-06T11:41:05.230Z,8.10
2023-04-06T11:43:57.501Z,8.83
2023-04-06T11:46:54.905Z,7.77
2023-04-06T11:49:45.877Z,12.10
2023-04-06T11:52:34.611Z,11.00
2023-04-06T11:55:23.382Z,8.73
2023-04-06T11:58:14.435Z,9.50
2023-04-06T12:01:06.696Z,8.00
2023-04-06T12:03:56.254Z,9.03
2023-04-06T12:06:45.319Z,10.60
2023-04-06T12:09:35.755Z,11.13
2023-04-06T12:12:24.727Z,12.23
2023-04-06T12:15:15.122Z,9.60
2023-04-06T12:18:04.207Z,11.00
2023-04-06T12:20:53.861Z,8.57
2023-04-06T12:23:42.769Z,10.80
2023-04-06T12:26:32.480Z,9.97
2023-04-06T12:29:21.477Z,13.23
2023-04-06T12:32:13.954Z,8.60
2023-04-06T12:35:02.856Z,9.73
2023-04-06T12:37:51.960Z,11.13
2023-04-06T12:40:41.091Z,13.00
2023-04-06T12:43:29.907Z,12.80
2023-04-06T12:46:19.179Z,10.70
2023-04-06T12:49:09.348Z,11.00
2023-04-06T12:51:58.300Z,8.50
2023-04-06T12:54:48.660Z,12.27
2023-04-06T12:57:39.479Z,11.43
2023-04-06T13:00:28.639Z,10.33
2023-04-06T13:03:17.470Z,9.57
2023-04-06T13:06:09.362Z,8.37
2023-04-06T13:08:58.178Z,9.43
2023-04-06T13:11:47.077Z,8.30
2023-04-06T13:14:35.851Z,10.07
2023-04-06T13:17:24.555Z,11.40
2023-04-06T13:20:14.332Z,10.20
2023-04-06T13:23:04.818Z,7.77
2023-04-06T13:26:01.935Z,8.47
2023-04-06T13:28:50.787Z,9.10
2023-04-06T13:31:40.322Z,12.87
2023-04-06T13:34:29.083Z,12.53
2023-04-06T13:37:18.390Z,12.83
2023-04-06T13:40:10.894Z,16.60
2023-04-06T13:42:59.740Z,9.90
2023-04-06T13:45:53.760Z,12.03
2023-04-06T13:48:42.897Z,11.07
2023-04-06T13:51:32.132Z,9.10
2023-04-06T13:54:22.104Z,11.90
2023-04-06T13:57:13.258Z,11.33
2023-04-06T14:00:05.088Z,10.13
2023-04-06T14:02:57.002Z,11.13
2023-04-06T14:05:46.688Z,12.07
2023-04-06T14:08:35.500Z,9.97
2023-04-06T14:11:24.227Z,10.27
2023-04-06T14:14:14.501Z,9.27
2023-04-06T14:17:03.691Z,9.13
2023-04-06T14:19:52.539Z,11.80
2023-04-06T14:22:41.335Z,9.77
2023-04-06T14:25:32.258Z,13.03
2023-04-06T14:28:23.242Z,11.13
2023-04-06T14:31:16.365Z,9.53
2023-04-06T14:34:05.851Z,11.67
2023-04-06T14:36:54.761Z,10.97
2023-04-06T14:39:43.574Z,9.10
2023-04-06T14:42:32.686Z,9.73
2023-04-06T14:45:22.899Z,11.77
2023-04-06T14:48:13.324Z,12.43
2023-04-06T14:51:02.351Z,11.73
2023-04-06T14:53:51.148Z,9.40
2023-04-06T14:56:39.909Z,8.37
2023-04-06T15:02:18.279Z,10.63
2023-04-06T15:05:09.480Z,10.20
2023-04-06T15:07:58.596Z,9.20
2023-04-06T15:10:47.360Z,8.77
2023-04-06T15:13:36.416Z,10.03
2023-04-06T15:16:25.150Z,11.23
2023-04-06T15:19:14.148Z,10.53
2023-04-06T15:22:04.658Z,9.00
2023-04-06T15:24:53.590Z,8.63
2023-04-06T15:27:42.475Z,7.57
2023-04-06T15:30:31.219Z,8.27
2023-04-06T15:33:22.936Z,7.60
2023-04-06T15:36:24.857Z,8.60
2023-04-06T15:39:15.220Z,8.93
2023-04-06T15:42:04.178Z,10.37
2023-04-06T15:44:53.049Z,8.17
2023-04-06T15:47:44.165Z,11.43
2023-04-06T15:50:33.501Z,8.33
2023-04-06T15:53:22.245Z,7.60
2023-04-06T15:56:14.606Z,8.00
2023-04-06T15:59:04.437Z,8.27
2023-04-06T16:01:54.162Z,9.70
2023-04-06T16:04:43.078Z,7.43
2023-04-06T16:07:32.064Z,9.87
2023-04-06T16:10:21.283Z,10.27
2023-04-06T16:13:14.481Z,7.97
2023-04-06T16:16:04.245Z,10.43
2023-04-06T16:18:53.141Z,9.70
2023-04-06T16:21:42.062Z,10.03
2023-04-06T16:24:31.089Z,10.40
2023-04-06T16:27:19.791Z,8.67
2023-04-06T16:30:22.514Z,11.30
2023-04-06T16:33:12.473Z,9.13
2023-04-06T16:36:01.960Z,9.70
2023-04-06T16:38:50.840Z,10.77
2023-04-06T16:41:40.879Z,10.67
2023-04-06T16:44:30.251Z,18.70
2023-04-06T16:47:20.814Z,13.90
2023-04-06T16:50:11.622Z,25.83
2023-04-06T16:53:00.540Z,12.33
2023-04-06T16:55:49.508Z,16.70
2023-04-06T16:58:38.443Z,16.87
2023-04-06T17:01:29.413Z,15.47
2023-04-06T17:04:19.693Z,15.87
2023-04-06T17:07:09.996Z,11.87
2023-04-06T17:09:58.762Z,15.77
2023-04-06T17:12:47.936Z,13.73
2023-04-06T17:15:36.702Z,10.03
2023-04-06T17:18:25.501Z,14.83
2023-04-06T17:21:17.182Z,16.70
2023-04-06T17:24:07.009Z,23.13
2023-04-06T17:26:56.601Z,21.03
2023-04-06T17:29:45.512Z,13.73
2023-04-06T17:32:35.133Z,15.13
2023-04-06T17:35:23.944Z,12.90
2023-04-06T17:38:14.367Z,10.83
2023-04-06T17:41:05.239Z,13.63
2023-04-06T17:43:53.987Z,12.03
2023-04-06T17:46:42.760Z,13.57
2023-04-06T17:49:32.294Z,12.63
2023-04-06T17:52:21.121Z,23.53
2023-04-06T17:55:12.350Z,14.53
2023-04-06T17:58:01.366Z,28.87
2023-04-06T18:00:50.214Z,14.73
2023-04-06T18:03:39.286Z,16.40
2023-04-06T18:06:28.180Z,13.30
2023-04-06T18:09:17.111Z,15.63
2023-04-06T18:12:07.719Z,19.57
2023-04-06T18:14:56.812Z,17.77
2023-04-06T18:17:47.344Z,14.73
2023-04-06T18:20:41.246Z,16.03
2023-04-06T18:23:30.015Z,16.57
2023-04-06T18:26:20.219Z,14.00
2023-04-06T18:29:11.126Z,14.50
2023-04-06T18:31:59.932Z,14.47
2023-04-06T18:34:48.816Z,16.17
2023-04-06T18:37:37.857Z,14.53
2023-04-06T18:40:33.845Z,11.83
2023-04-06T18:43:22.608Z,14.67
2023-04-06T18:46:17.248Z,12.40
2023-04-06T18:49:07.014Z,12.50
2023-04-06T18:51:57.819Z,13.10
2023-04-06T18:54:46.663Z,17.43
2023-04-06T18:57:35.735Z,13.67
2023-04-06T19:00:24.532Z,15.70
2023-04-06T19:03:15.052Z,14.17
2023-04-06T19:06:06.128Z,13.10
2023-04-06T19:08:55.577Z,12.60
2023-04-06T19:11:44.536Z,15.37
2023-04-06T19:14:33.995Z,11.77
2023-04-06T19:17:22.859Z,12.27
2023-04-06T19:20:13.415Z,11.67
2023-04-06T19:23:03.140Z,13.43
2023-04-06T19:25:53.769Z,11.73
2023-04-06T19:28:44.901Z,13.27
2023-04-06T19:31:33.854Z,11.13
2023-04-06T19:34:22.767Z,14.80
2023-04-06T19:37:13.343Z,13.20
2023-04-06T19:40:02.385Z,12.43
2023-04-06T19:42:51.280Z,11.30
2023-04-06T19:45:40.060Z,11.97
2023-04-06T19:48:28.947Z,15.70
2023-04-06T19:51:17.955Z,9.30
2023-04-06T19:54:08.811Z,15.37
2023-04-06T19:56:58.365Z,11.37
2023-04-06T19:59:47.150Z,12.43
2023-04-06T20:02:36.134Z,19.77
2023-04-06T20:05:24.964Z,20.27
2023-04-06T20:08:13.715Z,12.33
2023-04-06T20:11:07.626Z,11.57
2023-04-06T20:13:56.672Z,14.50
2023-04-06T20:16:45.893Z,17.43
2023-04-06T20:19:35.130Z,12.27
2023-04-06T20:22:23.989Z,14.93
2023-04-06T20:25:13.541Z,12.37
2023-04-06T20:28:04.209Z,10.80
2023-04-06T20:30:53.744Z,11.73
2023-04-06T20:33:42.648Z,13.40
2023-04-06T20:36:34.012Z,14.00
2023-04-06T20:39:22.995Z,14.73
2023-04-06T20:42:12.782Z,13.37
2023-04-06T20:45:03.655Z,19.43
2023-04-06T20:47:53.689Z,12.53
2023-04-06T20:50:42.654Z,16.10
2023-04-06T20:53:32.019Z,14.50
2023-04-06T20:56:22.085Z,14.17
2023-04-06T20:59:11.306Z,15.87
2023-04-06T21:02:01.615Z,15.97
2023-04-06T21:04:50.621Z,17.17
2023-04-06T21:07:39.502Z,17.73
2023-04-06T21:10:28.254Z,17.07
2023-04-06T21:13:17.158Z,21.23
2023-04-06T21:16:06.200Z,20.67
2023-04-06T21:18:56.445Z,19.67
2023-04-06T21:21:45.214Z,21.93
2023-04-06T21:24:34.205Z,20.70
2023-04-06T21:27:23.238Z,19.33
2023-04-06T21:30:13.949Z,21.47
2023-04-06T21:33:02.781Z,20.40
2023-04-06T21:35:53.768Z,27.63
2023-04-06T21:38:42.561Z,22.20
2023-04-06T21:41:31.744Z,24.43
2023-04-06T21:44:20.849Z,21.20
2023-04-06T21:47:10.192Z,25.20
2023-04-06T21:49:59.184Z,26.87
2023-04-06T21:52:49.563Z,25.70
2023-04-06T21:55:44.054Z,25.43
2023-04-06T21:58:32.738Z,24.13
2023-04-06T22:01:21.824Z,26.43
2023-04-06T22:04:11.443Z,26.10
2023-04-06T22:07:00.349Z,26.20
2023-04-06T22:09:53.716Z,25.67
2023-04-06T22:12:43.067Z,23.07
2023-04-06T22:15:32.502Z,27.80
2023-04-06T22:18:21.813Z,22.93
2023-04-06T22:21:13.266Z,22.63
2023-04-06T22:24:02.243Z,22.47
2023-04-06T22:26:52.311Z,26.27
2023-04-06T22:29:41.070Z,22.87
2023-04-06T22:32:29.783Z,19.77
2023-04-06T22:35:18.737Z,20.87
2023-04-06T22:38:07.481Z,20.53
2023-04-06T22:40:56.286Z,23.47
2023-04-06T22:43:46.402Z,21.33
2023-04-06T22:46:35.095Z,22.33
2023-04-06T22:49:23.972Z,19.30
2023-04-06T22:52:12.933Z,21.57
2023-04-06T22:55:01.844Z,21.33
2023-04-06T22:57:50.712Z,21.27
2023-04-06T23:00:40.817Z,21.07
2023-04-06T23:03:29.708Z,20.67
2023-04-06T23:06:18.511Z,22.13
2023-04-06T23:09:07.340Z,21.23
2023-04-06T23:11:56.412Z,24.03
2023-04-06T23:14:45.230Z,24.93
2023-04-06T23:17:35.362Z,24.53
2023-04-06T23:20:24.396Z,22.83
2023-04-06T23:23:13.090Z,22.30
2023-04-06T23:26:02.188Z,21.43
2023-04-06T23:28:50.998Z,23.57
2023-04-06T23:31:39.816Z,25.60
2023-04-06T23:34:29.926Z,24.60
2023-04-06T23:37:18.700Z,24.27
2023-04-06T23:40:08.821Z,21.97
2023-04-06T23:42:58.478Z,25.70
2023-04-06T23:45:47.291Z,26.57
2023-04-06T23:48:36.003Z,24.63
2023-04-06T23:51:26.267Z,25.63
2023-04-06T23:54:14.993Z,24.33
2023-04-06T23:57:03.953Z,26.43
2023-04-06T23:59:52.710Z,30.13
